createdAt,value
2018-04-09T00:00:35.769Z,19.83
2018-04-09T00:03:04.073Z,25.60
2018-04-09T00:05:32.520Z,26.77
2018-04-09T00:08:00.817Z,23.10
2018-04-09T00:10:29.508Z,23.73
2018-04-09T00:12:58.207Z,27.47
2018-04-09T00:15:26.495Z,32.53
2018-04-09T00:17:54.799Z,25.30
2018-04-09T00:20:23.411Z,34.53
2018-04-09T00:22:51.705Z,30.40
2018-04-09T00:25:20.400Z,28.00
2018-04-09T00:27:49.135Z,24.63
2018-04-09T00:30:17.427Z,25.23
2018-04-09T00:32:45.728Z,24.33
2018-04-09T00:35:14.055Z,23.53
2018-04-09T00:37:42.357Z,25.27
2018-04-09T00:40:10.638Z,25.03
2018-04-09T00:42:38.974Z,23.20
2018-04-09T00:45:07.262Z,25.80
2018-04-09T00:47:35.595Z,22.10
2018-04-09T00:50:04.351Z,24.70
2018-04-09T00:52:32.651Z,27.03
2018-04-09T00:55:01.337Z,21.73
2018-04-09T00:57:30.045Z,25.83
2018-04-09T00:59:58.327Z,29.97
2018-04-09T01:02:26.755Z,29.67
2018-04-09T01:04:55.079Z,23.33
2018-04-09T01:07:23.363Z,19.80
2018-04-09T01:09:51.647Z,19.50
2018-04-09T01:12:19.990Z,27.27
2018-04-09T01:14:48.666Z,28.10
2018-04-09T01:17:17.651Z,28.47
2018-04-09T01:19:45.980Z,34.30
2018-04-09T01:22:14.616Z,24.17
2018-04-09T01:24:42.908Z,27.03
2018-04-09T01:27:11.622Z,28.37
2018-04-09T01:29:39.904Z,26.00
2018-04-09T01:32:08.210Z,29.60
2018-04-09T01:34:36.542Z,28.63
2018-04-09T01:37:04.842Z,25.90
2018-04-09T01:39:33.141Z,25.27
2018-04-09T01:42:01.463Z,32.77
2018-04-09T01:44:29.755Z,27.67
2018-04-09T01:46:58.087Z,28.30
2018-04-09T01:49:26.404Z,26.03
2018-04-09T01:51:54.691Z,27.87
2018-04-09T01:54:22.996Z,22.73
2018-04-09T01:56:51.338Z,26.13
2018-04-09T01:59:19.619Z,23.87
2018-04-09T02:01:47.912Z,26.27
2018-04-09T02:04:16.228Z,31.63
2018-04-09T02:06:44.510Z,22.83
2018-04-09T02:09:13.218Z,34.57
2018-04-09T02:11:41.539Z,30.40
2018-04-09T02:14:09.823Z,30.63
2018-04-09T02:16:38.105Z,28.07
2018-04-09T02:19:06.461Z,27.40
2018-04-09T02:21:34.739Z,24.67
2018-04-09T02:24:03.035Z,25.60
2018-04-09T02:26:31.364Z,29.30
2018-04-09T02:28:59.787Z,28.67
2018-04-09T02:31:28.116Z,28.97
2018-04-09T02:33:56.703Z,28.20
2018-04-09T02:36:25.135Z,29.80
2018-04-09T02:38:53.763Z,30.50
2018-04-09T02:41:22.491Z,26.80
2018-04-09T02:43:50.957Z,27.90
2018-04-09T02:46:19.240Z,24.83
2018-04-09T02:48:47.564Z,29.73
2018-04-09T02:51:16.248Z,22.53
2018-04-09T02:53:44.609Z,26.30
2018-04-09T02:56:12.925Z,28.53
2018-04-09T02:58:41.278Z,30.87
2018-04-09T03:01:09.567Z,29.53
2018-04-09T03:03:38.236Z,36.90
2018-04-09T03:06:06.567Z,32.73
2018-04-09T03:08:35.297Z,34.00
2018-04-09T03:11:03.979Z,34.93
2018-04-09T03:13:32.567Z,30.70
2018-04-09T03:16:00.854Z,29.17
2018-04-09T03:18:29.217Z,30.03
2018-04-09T03:20:57.534Z,32.40
2018-04-09T03:23:25.824Z,25.23
2018-04-09T03:25:54.216Z,25.13
2018-04-09T03:28:22.519Z,30.27
2018-04-09T03:30:50.808Z,42.67
2018-04-09T03:33:19.120Z,38.23
2018-04-09T03:35:47.411Z,32.93
2018-04-09T03:38:15.691Z,29.20
2018-04-09T03:40:44.036Z,34.07
2018-04-09T03:43:12.726Z,25.97
2018-04-09T03:45:41.403Z,30.73
2018-04-09T03:48:10.105Z,26.60
2018-04-09T03:50:38.392Z,39.23
2018-04-09T03:53:07.249Z,26.37
2018-04-09T03:55:37.049Z,33.40
2018-04-09T03:58:06.345Z,25.60
2018-04-09T04:00:34.651Z,29.87
2018-04-09T04:03:03.372Z,29.57
2018-04-09T04:05:31.696Z,30.57
2018-04-09T04:08:00.004Z,46.30
2018-04-09T04:10:28.859Z,51.73
2018-04-09T04:12:57.592Z,31.40
2018-04-09T04:15:38.062Z,45.13
2018-04-09T04:18:18.137Z,46.50
2018-04-09T04:20:58.509Z,39.43
2018-04-09T04:23:26.981Z,24.33
2018-04-09T04:25:56.486Z,23.17
2018-04-09T04:28:24.904Z,27.40
2018-04-09T04:30:53.581Z,23.80
2018-04-09T04:33:22.576Z,27.63
2018-04-09T04:35:50.995Z,36.63
2018-04-09T04:38:19.364Z,27.67
2018-04-09T04:40:47.945Z,24.47
2018-04-09T04:43:16.351Z,31.73
2018-04-09T04:45:44.829Z,25.93
2018-04-09T04:48:13.543Z,20.77
2018-04-09T04:50:41.830Z,26.93
2018-04-09T04:53:10.520Z,24.70
2018-04-09T04:55:39.262Z,23.67
2018-04-09T04:58:07.653Z,16.30
2018-04-09T05:00:35.948Z,19.53
2018-04-09T05:03:04.267Z,31.53
2018-04-09T05:05:32.572Z,23.43
2018-04-09T05:08:00.851Z,27.90
2018-04-09T05:10:29.171Z,36.13
2018-04-09T05:12:57.867Z,32.67
2018-04-09T05:15:26.556Z,18.97
2018-04-09T05:17:54.988Z,27.40
2018-04-09T05:20:23.309Z,27.23
2018-04-09T05:22:52.013Z,26.30
2018-04-09T05:25:20.363Z,32.73
2018-04-09T05:27:49.221Z,32.80
2018-04-09T05:30:17.546Z,28.83
2018-04-09T05:32:45.852Z,25.90
2018-04-09T05:35:14.144Z,21.60
2018-04-09T05:37:42.423Z,24.60
2018-04-09T05:40:10.734Z,32.07
2018-04-09T05:42:39.718Z,28.30
2018-04-09T05:45:08.298Z,30.60
2018-04-09T05:47:36.756Z,32.27
2018-04-09T05:50:05.053Z,39.37
2018-04-09T05:52:33.410Z,44.77
2018-04-09T05:55:01.892Z,30.93
2018-04-09T05:57:30.795Z,34.13
2018-04-09T05:59:59.136Z,31.07
2018-04-09T06:02:27.467Z,28.60
2018-04-09T06:04:55.775Z,30.53
2018-04-09T06:07:24.061Z,27.93
2018-04-09T06:09:52.379Z,29.33
2018-04-09T06:12:20.678Z,31.53
2018-04-09T06:14:49.365Z,38.10
2018-04-09T06:17:18.117Z,31.10
2018-04-09T06:19:46.473Z,30.53
2018-04-09T06:22:14.804Z,28.70
2018-04-09T06:24:43.510Z,32.67
2018-04-09T06:27:12.063Z,32.93
2018-04-09T06:29:40.434Z,31.83
2018-04-09T06:32:08.894Z,28.00
2018-04-09T06:34:38.225Z,33.27
2018-04-09T06:37:06.587Z,31.93
2018-04-09T06:39:34.882Z,30.10
2018-04-09T06:42:03.614Z,32.87
2018-04-09T06:44:31.944Z,37.67
2018-04-09T06:47:00.297Z,30.10
2018-04-09T06:49:28.663Z,36.47
2018-04-09T06:51:57.330Z,32.17
2018-04-09T06:54:26.059Z,45.03
2018-04-09T06:56:54.823Z,39.23
2018-04-09T06:59:23.136Z,27.00
2018-04-09T07:01:51.576Z,25.30
2018-04-09T07:04:19.915Z,37.53
2018-04-09T07:06:49.120Z,32.30
2018-04-09T07:09:17.571Z,20.13
2018-04-09T07:11:47.002Z,29.13
2018-04-09T07:14:15.306Z,24.92
2018-04-09T07:16:44.296Z,28.83
2018-04-09T07:19:12.695Z,22.77
2018-04-09T07:21:41.027Z,23.30
2018-04-09T07:24:09.332Z,23.00
2018-04-09T07:26:37.633Z,26.83
2018-04-09T07:29:05.924Z,25.63
2018-04-09T07:31:34.212Z,32.83
2018-04-09T07:34:02.936Z,42.87
2018-04-09T07:36:31.242Z,27.10
2018-04-09T07:38:59.594Z,25.20
2018-04-09T07:41:27.917Z,28.53
2018-04-09T07:43:56.280Z,20.37
2018-04-09T07:46:24.594Z,38.37
2018-04-09T07:48:53.324Z,26.70
2018-04-09T07:51:22.322Z,22.33
2018-04-09T07:53:51.568Z,19.00
2018-04-09T07:56:20.318Z,12.83
2018-04-09T07:58:48.614Z,18.93
2018-04-09T08:01:16.937Z,18.03
2018-04-09T08:03:45.297Z,15.70
2018-04-09T08:06:14.032Z,19.57
2018-04-09T08:08:42.301Z,13.20
2018-04-09T08:11:10.632Z,18.33
2018-04-09T08:13:39.351Z,18.10
2018-04-09T08:16:07.640Z,20.07
2018-04-09T08:18:36.039Z,17.57
2018-04-09T08:21:04.414Z,19.43
2018-04-09T08:23:32.737Z,20.63
2018-04-09T08:26:01.431Z,18.03
2018-04-09T08:28:29.724Z,18.33
2018-04-09T08:30:58.023Z,22.00
2018-04-09T08:33:26.639Z,16.33
2018-04-09T08:35:54.942Z,10.43
2018-04-09T08:38:23.246Z,17.40
2018-04-09T08:40:51.546Z,15.83
2018-04-09T08:43:20.144Z,13.20
2018-04-09T08:45:48.462Z,12.23
2018-04-09T08:48:16.776Z,10.97
2018-04-09T08:50:45.060Z,8.53
2018-04-09T08:53:13.374Z,13.20
2018-04-09T08:55:42.071Z,9.27
2018-04-09T08:58:10.396Z,9.23
2018-04-09T09:00:38.733Z,10.40
2018-04-09T09:03:07.039Z,17.73
2018-04-09T09:05:35.348Z,14.60
2018-04-09T09:08:03.667Z,12.60
2018-04-09T09:10:31.992Z,12.10
2018-04-09T09:13:00.272Z,14.73
2018-04-09T09:15:28.697Z,10.83
2018-04-09T09:17:57.372Z,15.30
2018-04-09T09:20:25.686Z,14.93
2018-04-09T09:22:54.029Z,13.03
2018-04-09T09:25:22.339Z,18.03
2018-04-09T09:27:50.623Z,15.63
2018-04-09T09:30:19.041Z,15.97
2018-04-09T09:32:47.516Z,14.87
2018-04-09T09:35:15.857Z,15.23
2018-04-09T09:37:44.223Z,18.60
2018-04-09T09:40:12.613Z,11.67
2018-04-09T09:42:40.901Z,12.47
2018-04-09T09:45:09.886Z,10.97
2018-04-09T09:47:38.252Z,10.63
2018-04-09T09:50:06.873Z,14.00
2018-04-09T09:52:36.054Z,13.60
2018-04-09T09:55:04.362Z,15.43
2018-04-09T09:57:33.122Z,14.43
2018-04-09T10:00:01.463Z,16.93
2018-04-09T10:02:31.671Z,14.67
2018-04-09T10:05:00.039Z,11.03
2018-04-09T10:07:28.714Z,14.53
2018-04-09T10:09:57.425Z,12.53
2018-04-09T10:12:25.799Z,19.87
2018-04-09T10:14:54.125Z,14.00
2018-04-09T10:17:22.500Z,15.13
2018-04-09T10:19:50.842Z,17.10
2018-04-09T10:22:19.152Z,15.60
2018-04-09T10:24:47.569Z,13.30
2018-04-09T10:27:16.283Z,15.13
2018-04-09T10:29:44.579Z,9.83
2018-04-09T10:32:12.873Z,10.80
2018-04-09T10:34:41.213Z,13.03
2018-04-09T10:37:09.525Z,12.00
2018-04-09T10:39:37.835Z,16.10
2018-04-09T10:42:06.565Z,9.90
2018-04-09T10:44:35.168Z,13.40
2018-04-09T10:47:03.491Z,13.97
2018-04-09T10:49:32.240Z,12.87
2018-04-09T10:52:00.555Z,12.07
2018-04-09T10:54:29.110Z,8.87
2018-04-09T10:56:57.433Z,9.33
2018-04-09T10:59:25.808Z,9.57
2018-04-09T11:01:54.059Z,12.90
2018-04-09T11:04:22.376Z,13.03
2018-04-09T11:06:50.654Z,13.93
2018-04-09T11:09:18.983Z,11.83
2018-04-09T11:11:47.306Z,23.77
2018-04-09T11:14:15.620Z,12.37
2018-04-09T11:16:44.945Z,13.33
2018-04-09T11:19:13.655Z,12.80
2018-04-09T11:21:41.941Z,11.17
2018-04-09T11:24:10.357Z,14.77
2018-04-09T11:26:38.675Z,14.10
2018-04-09T11:29:06.982Z,14.03
2018-04-09T11:31:35.292Z,14.47
2018-04-09T11:34:03.595Z,12.00
2018-04-09T11:36:32.357Z,8.97
2018-04-09T11:39:00.635Z,8.83
2018-04-09T11:41:28.913Z,10.77
2018-04-09T11:43:57.239Z,15.10
2018-04-09T11:46:25.567Z,20.30
2018-04-09T11:48:53.930Z,14.80
2018-04-09T11:51:22.323Z,9.43
2018-04-09T11:53:50.612Z,21.33
2018-04-09T11:56:18.898Z,14.83
2018-04-09T11:58:47.228Z,11.43
2018-04-09T12:01:15.527Z,17.10
2018-04-09T12:03:43.902Z,14.60
2018-04-09T12:06:12.217Z,15.77
2018-04-09T12:08:40.526Z,12.33
2018-04-09T12:11:08.852Z,12.10
2018-04-09T12:13:37.571Z,19.13
2018-04-09T12:16:05.881Z,15.00
2018-04-09T12:18:34.193Z,10.47
2018-04-09T12:21:02.483Z,13.50
2018-04-09T12:23:30.770Z,13.50
2018-04-09T12:25:59.472Z,16.90
2018-04-09T12:28:27.771Z,13.43
2018-04-09T12:30:56.500Z,11.03
2018-04-09T12:33:24.844Z,13.80
2018-04-09T12:35:53.234Z,12.30
2018-04-09T12:38:21.557Z,16.30
2018-04-09T12:40:50.250Z,12.40
2018-04-09T12:43:18.547Z,11.90
2018-04-09T12:45:46.867Z,9.90
2018-04-09T12:48:15.866Z,13.20
2018-04-09T12:50:44.455Z,13.93
2018-04-09T12:53:12.781Z,9.67
2018-04-09T12:55:41.977Z,10.67
2018-04-09T12:58:10.594Z,12.60
2018-04-09T13:00:38.896Z,8.80
2018-04-09T13:03:07.585Z,14.60
2018-04-09T13:05:36.367Z,12.77
2018-04-09T13:08:05.647Z,12.10
2018-04-09T13:10:33.929Z,13.43
2018-04-09T13:13:02.636Z,14.77
2018-04-09T13:15:31.170Z,10.90
2018-04-09T13:17:59.462Z,10.17
2018-04-09T13:20:27.785Z,14.40
2018-04-09T13:22:56.069Z,14.37
2018-04-09T13:25:24.705Z,14.33
2018-04-09T13:27:52.997Z,11.53
2018-04-09T13:30:21.722Z,12.67
2018-04-09T13:32:50.230Z,20.10
2018-04-09T13:35:18.566Z,12.70
2018-04-09T13:37:46.856Z,14.23
2018-04-09T13:40:15.168Z,17.77
2018-04-09T13:42:43.555Z,16.17
2018-04-09T13:45:12.291Z,11.77
2018-04-09T13:47:40.655Z,11.73
2018-04-09T13:50:08.931Z,10.70
2018-04-09T13:52:37.484Z,15.70
2018-04-09T13:55:06.172Z,9.10
2018-04-09T13:57:34.453Z,8.53
2018-04-09T14:00:02.757Z,8.67
2018-04-09T14:02:31.307Z,12.37
2018-04-09T14:04:59.605Z,11.97
2018-04-09T14:07:28.356Z,14.67
2018-04-09T14:09:56.788Z,13.23
2018-04-09T14:12:25.238Z,11.83
2018-04-09T14:14:53.543Z,12.20
2018-04-09T14:17:21.837Z,13.80
2018-04-09T14:19:50.148Z,9.80
2018-04-09T14:22:18.454Z,14.30
2018-04-09T14:24:47.010Z,9.20
2018-04-09T14:27:15.306Z,10.47
2018-04-09T14:29:44.315Z,9.73
2018-04-09T14:32:12.991Z,11.70
2018-04-09T14:34:41.355Z,11.97
2018-04-09T14:37:09.672Z,11.83
2018-04-09T14:39:37.994Z,17.03
2018-04-09T14:42:06.538Z,11.00
2018-04-09T14:44:35.756Z,29.17
2018-04-09T14:47:04.282Z,10.97
2018-04-09T14:49:32.579Z,11.97
2018-04-09T14:52:00.941Z,10.37
2018-04-09T14:54:29.259Z,11.73
2018-04-09T14:56:57.536Z,14.73
2018-04-09T14:59:25.880Z,13.90
2018-04-09T15:01:54.599Z,12.80
2018-04-09T15:04:23.105Z,12.23
2018-04-09T15:06:51.416Z,12.77
2018-04-09T15:09:19.758Z,12.83
2018-04-09T15:11:48.081Z,12.40
2018-04-09T15:14:16.787Z,17.90
2018-04-09T15:16:45.071Z,13.60
2018-04-09T15:19:13.526Z,16.90
2018-04-09T15:21:42.046Z,11.40
2018-04-09T15:24:10.376Z,16.07
2018-04-09T15:26:38.746Z,11.27
2018-04-09T15:29:07.255Z,12.17
2018-04-09T15:31:35.661Z,13.60
2018-04-09T15:34:04.056Z,13.20
2018-04-09T15:36:32.371Z,16.87
2018-04-09T15:39:00.687Z,16.50
2018-04-09T15:41:28.975Z,13.50
2018-04-09T15:43:57.262Z,13.70
2018-04-09T15:46:25.573Z,15.23
2018-04-09T15:48:54.740Z,20.53
2018-04-09T15:51:23.037Z,10.73
2018-04-09T15:53:51.365Z,20.13
2018-04-09T15:56:19.666Z,13.13
2018-04-09T15:58:48.045Z,13.03
2018-04-09T16:01:17.056Z,13.70
2018-04-09T16:03:45.575Z,16.63
2018-04-09T16:06:14.221Z,13.67
2018-04-09T16:08:42.849Z,14.80
2018-04-09T16:11:11.200Z,13.77
2018-04-09T16:13:39.890Z,14.07
2018-04-09T16:16:08.538Z,11.73
2018-04-09T16:18:36.991Z,16.10
2018-04-09T16:21:05.341Z,10.90
2018-04-09T16:23:34.059Z,11.03
2018-04-09T16:26:02.373Z,11.50
2018-04-09T16:28:30.649Z,11.17
2018-04-09T16:30:59.358Z,12.90
2018-04-09T16:33:27.678Z,9.10
2018-04-09T16:35:55.960Z,10.00
2018-04-09T16:38:24.464Z,11.83
2018-04-09T16:40:52.780Z,14.60
2018-04-09T16:43:21.912Z,11.23
2018-04-09T16:45:50.313Z,11.40
2018-04-09T16:48:18.628Z,10.07
2018-04-09T16:50:46.950Z,12.03
2018-04-09T16:53:15.265Z,10.63
2018-04-09T16:55:43.951Z,11.63
2018-04-09T16:58:12.236Z,14.93
2018-04-09T17:00:41.154Z,13.80
2018-04-09T17:03:09.461Z,14.07
2018-04-09T17:05:37.761Z,18.47
2018-04-09T17:08:06.507Z,13.30
2018-04-09T17:10:36.184Z,12.73
2018-04-09T17:13:05.155Z,15.77
2018-04-09T17:15:34.338Z,14.23
2018-04-09T17:18:03.523Z,12.13
2018-04-09T17:20:31.907Z,16.50
2018-04-09T17:23:00.220Z,16.90
2018-04-09T17:25:28.942Z,17.27
2018-04-09T17:27:58.052Z,16.00
2018-04-09T17:30:26.355Z,14.90
2018-04-09T17:32:54.905Z,15.50
2018-04-09T17:35:23.433Z,20.00
2018-04-09T17:37:51.795Z,14.87
2018-04-09T17:40:20.290Z,16.03
2018-04-09T17:42:49.020Z,18.30
2018-04-09T17:45:17.313Z,13.17
2018-04-09T17:47:45.698Z,16.37
2018-04-09T17:50:14.017Z,15.73
2018-04-09T17:52:42.377Z,14.63
2018-04-09T17:55:10.702Z,12.73
2018-04-09T17:57:39.009Z,17.70
2018-04-09T18:00:07.307Z,18.87
2018-04-09T18:02:35.697Z,16.93
2018-04-09T18:05:04.410Z,12.77
2018-04-09T18:07:32.730Z,17.70
2018-04-09T18:10:01.059Z,16.50
2018-04-09T18:12:29.828Z,15.73
2018-04-09T18:14:58.181Z,18.37
2018-04-09T18:17:26.911Z,15.93
2018-04-09T18:19:55.801Z,13.33
2018-04-09T18:22:24.223Z,15.30
2018-04-09T18:24:52.573Z,14.37
2018-04-09T18:27:20.885Z,22.13
2018-04-09T18:29:50.558Z,12.00
2018-04-09T18:32:19.062Z,16.60
2018-04-09T18:34:47.685Z,19.03
2018-04-09T18:37:15.985Z,16.50
2018-04-09T18:39:44.782Z,20.70
2018-04-09T18:42:13.077Z,14.90
2018-04-09T18:44:41.377Z,18.63
2018-04-09T18:47:09.982Z,17.53
2018-04-09T18:49:38.442Z,16.90
2018-04-09T18:52:07.169Z,14.13
2018-04-09T18:54:35.597Z,15.07
2018-04-09T18:57:03.955Z,14.03
2018-04-09T18:59:32.368Z,18.10
2018-04-09T19:02:00.656Z,15.60
2018-04-09T19:04:28.963Z,18.00
2018-04-09T19:06:57.673Z,14.27
2018-04-09T19:09:25.970Z,17.80
2018-04-09T19:11:54.277Z,17.40
2018-04-09T19:14:22.576Z,17.03
2018-04-09T19:16:51.432Z,14.80
2018-04-09T19:19:20.165Z,17.33
2018-04-09T19:21:48.488Z,18.63
2018-04-09T19:24:17.257Z,20.70
2018-04-09T19:26:45.987Z,17.07
2018-04-09T19:29:14.813Z,16.17
2018-04-09T19:31:43.135Z,18.87
2018-04-09T19:34:16.915Z,19.33
2018-04-09T19:36:53.648Z,18.13
2018-04-09T19:39:28.237Z,18.00
2018-04-09T19:41:56.627Z,19.30
2018-04-09T19:44:30.637Z,19.63
2018-04-09T19:46:58.976Z,22.37
2018-04-09T19:49:27.296Z,18.10
2018-04-09T19:52:00.169Z,18.97
2018-04-09T19:54:31.792Z,16.70
2018-04-09T19:57:00.659Z,13.67
2018-04-09T19:59:29.086Z,21.33
2018-04-09T20:01:57.390Z,16.17
2018-04-09T20:04:29.256Z,16.00
2018-04-09T20:06:58.533Z,19.07
2018-04-09T20:09:26.825Z,15.50
2018-04-09T20:11:55.688Z,13.40
2018-04-09T20:14:26.244Z,16.07
2018-04-09T20:16:54.599Z,17.30
2018-04-09T20:19:23.450Z,17.60
2018-04-09T20:21:52.512Z,15.93
2018-04-09T20:24:21.322Z,15.27
2018-04-09T20:26:50.025Z,12.63
2018-04-09T20:29:18.361Z,12.90
2018-04-09T20:31:46.937Z,13.77
2018-04-09T20:34:15.265Z,12.60
2018-04-09T20:36:43.607Z,14.23
2018-04-09T20:39:12.385Z,14.00
2018-04-09T20:41:40.741Z,12.90
2018-04-09T20:44:09.070Z,13.40
2018-04-09T20:46:37.473Z,12.93
2018-04-09T20:49:05.844Z,15.80
2018-04-09T20:51:34.169Z,18.23
2018-04-09T20:54:02.505Z,14.93
2018-04-09T20:56:30.832Z,17.60
2018-04-09T20:58:59.576Z,19.30
2018-04-09T21:01:28.171Z,15.67
2018-04-09T21:03:56.592Z,19.43
2018-04-09T21:06:27.641Z,15.50
2018-04-09T21:08:57.321Z,22.40
2018-04-09T21:11:25.645Z,20.50
2018-04-09T21:13:53.940Z,18.67
2018-04-09T21:16:22.768Z,17.80
2018-04-09T21:18:51.489Z,18.97
2018-04-09T21:21:20.308Z,20.43
2018-04-09T21:23:48.636Z,20.57
2018-04-09T21:26:17.350Z,21.70
2018-04-09T21:28:45.699Z,20.10
2018-04-09T21:31:14.035Z,21.30
2018-04-09T21:33:42.341Z,20.50
2018-04-09T21:36:10.624Z,19.10
2018-04-09T21:38:38.919Z,22.50
2018-04-09T21:41:07.557Z,21.80
2018-04-09T21:43:35.905Z,25.10
2018-04-09T21:46:04.233Z,19.63
2018-04-09T21:48:32.960Z,20.07
2018-04-09T21:51:01.378Z,22.80
2018-04-09T21:53:29.702Z,20.10
2018-04-09T21:55:58.002Z,23.43
2018-04-09T21:58:26.308Z,22.60
2018-04-09T22:00:54.908Z,25.37
2018-04-09T22:03:24.365Z,21.90
2018-04-09T22:05:53.320Z,20.60
2018-04-09T22:08:22.020Z,27.93
2018-04-09T22:10:50.317Z,23.37
2018-04-09T22:13:18.617Z,23.80
2018-04-09T22:15:46.945Z,25.73
2018-04-09T22:18:15.715Z,23.50
2018-04-09T22:20:44.002Z,24.27
2018-04-09T22:23:12.300Z,22.77
2018-04-09T22:25:40.751Z,23.90
2018-04-09T22:28:09.454Z,24.13
2018-04-09T22:30:38.130Z,27.13
2018-04-09T22:33:06.444Z,26.07
2018-04-09T22:35:34.734Z,28.10
2018-04-09T22:38:03.731Z,27.80
2018-04-09T22:40:32.058Z,27.90
2018-04-09T22:43:00.748Z,26.30
2018-04-09T22:45:29.457Z,26.83
2018-04-09T22:47:57.792Z,25.87
2018-04-09T22:50:26.073Z,26.23
2018-04-09T22:52:54.784Z,27.30
2018-04-09T22:55:23.096Z,28.10
2018-04-09T22:57:51.392Z,27.00
2018-04-09T23:00:19.685Z,36.17
2018-04-09T23:02:48.407Z,30.83
2018-04-09T23:05:16.948Z,29.80
2018-04-09T23:07:45.240Z,31.03
2018-04-09T23:10:13.927Z,30.50
2018-04-09T23:12:42.653Z,28.07
2018-04-09T23:15:11.070Z,30.70
2018-04-09T23:17:39.801Z,30.03
2018-04-09T23:20:08.101Z,28.10
2018-04-09T23:22:36.407Z,32.70
2018-04-09T23:25:04.697Z,28.93
2018-04-09T23:27:33.404Z,31.67
2018-04-09T23:30:02.120Z,31.50
2018-04-09T23:32:30.846Z,29.97
2018-04-09T23:34:59.137Z,33.83
2018-04-09T23:37:27.838Z,30.13
2018-04-09T23:39:56.541Z,31.33
2018-04-09T23:42:24.889Z,31.80
2018-04-09T23:44:53.599Z,32.60
2018-04-09T23:47:21.896Z,31.53
2018-04-09T23:49:50.210Z,36.50
2018-04-09T23:52:18.625Z,30.70
2018-04-09T23:54:47.020Z,33.77
2018-04-09T23:57:15.365Z,28.53
2018-04-09T23:59:44.056Z,33.97
